Time;durP1;ratioP1;P1;durP2;ratioP2;P2;SDS_P1;SDS_P2;PMS_P1;PMS_P2;Temp;Humidity;BMP_temperature;BMP_pressure;BME280_temperature;BME280_humidity;BME280_pressure;Samples;Min_cycle;Max_cycle;Signal;HPM_P1;HPM_P2
2023/04/09 00:02:19;;;;;;;116.50;68.30;;;;;;;3.80;77.94;97747.07;108813;1253;100069;-71
2023/04/09 00:04:47;;;;;;;111.40;67.00;;;;;;;3.80;77.97;97749.61;108878;1252;95705;-71
2023/04/09 00:07:15;;;;;;;123.40;67.70;;;;;;;3.75;78.00;97748.82;108829;1252;96099;-72
2023/04/09 00:09:43;;;;;;;114.30;68.60;;;;;;;3.74;78.03;97747.26;108888;1252;103510;-72
2023/04/09 00:12:11;;;;;;;116.70;67.80;;;;;;;3.74;78.08;97745.16;108597;1253;109736;-71
2023/04/09 00:14:39;;;;;;;112.50;70.30;;;;;;;3.77;78.11;97744.88;108772;1253;100018;-72
2023/04/09 00:17:07;;;;;;;115.40;68.30;;;;;;;3.79;78.20;97746.83;108620;1253;95663;-72
2023/04/09 00:19:36;;;;;;;114.40;66.40;;;;;;;3.77;78.09;97749.12;108875;1253;96079;-72
2023/04/09 00:22:04;;;;;;;115.10;68.70;;;;;;;3.76;78.13;97750.84;108866;1253;103623;-73
2023/04/09 00:24:32;;;;;;;126.30;69.90;;;;;;;3.77;78.18;97751.26;108833;1252;101229;-72
2023/04/09 00:27:00;;;;;;;114.70;68.00;;;;;;;3.78;78.18;97751.79;108774;1254;99990;-72
2023/04/09 00:29:28;;;;;;;121.40;68.30;;;;;;;3.77;78.18;97750.92;108802;1255;95557;-72
2023/04/09 00:31:56;;;;;;;119.70;69.40;;;;;;;3.78;78.24;97754.27;108834;1253;95961;-72
2023/04/09 00:34:24;;;;;;;120.50;71.20;;;;;;;3.80;78.29;97755.14;108820;1253;103648;-72
2023/04/09 00:36:52;;;;;;;119.70;70.90;;;;;;;3.81;78.26;97755.52;108795;1254;101608;-71
2023/04/09 00:39:20;;;;;;;122.10;70.30;;;;;;;3.81;78.31;97755.66;108795;1253;100148;-72
2023/04/09 00:41:48;;;;;;;119.60;69.30;;;;;;;3.82;78.35;97752.38;108764;1253;95548;-72
2023/04/09 00:44:16;;;;;;;120.30;71.60;;;;;;;3.81;78.39;97752.83;108807;1254;96023;-71
2023/04/09 00:46:45;;;;;;;119.80;70.10;;;;;;;3.82;78.36;97749.95;108646;1254;103604;-72
2023/04/09 00:49:13;;;;;;;124.80;72.10;;;;;;;3.81;78.38;97748.73;108765;1253;101040;-73
2023/04/09 00:51:41;;;;;;;121.80;72.00;;;;;;;3.82;78.44;97750.79;108801;1253;100060;-72
2023/04/09 00:54:09;;;;;;;125.70;71.20;;;;;;;3.82;78.43;97753.28;108797;1253;95945;-72
2023/04/09 00:56:38;;;;;;;120.70;71.40;;;;;;;3.82;78.42;97752.95;108745;1253;96030;-72
2023/04/09 00:59:06;;;;;;;125.50;70.00;;;;;;;3.80;78.53;97753.14;108525;1257;103529;-72
2023/04/09 01:01:34;;;;;;;121.50;71.10;;;;;;;3.78;78.58;97749.09;108801;1252;101346;-72
2023/04/09 01:04:03;;;;;;;123.10;70.60;;;;;;;3.78;78.56;97748.05;108792;1254;99686;-73
2023/04/09 01:07:10;;;;;;;122.10;71.70;;;;;;;3.76;78.71;97748.01;108785;1255;95846;-72
2023/04/09 01:09:46;;;;;;;123.80;69.70;;;;;;;3.76;78.71;97751.27;108820;1253;96092;-72
2023/04/09 01:12:29;;;;;;;116.30;69.50;;;;;;;3.76;78.81;97749.77;108795;1254;103646;-72
2023/04/09 01:15:08;;;;;;;121.80;70.20;;;;;;;3.77;78.80;97746.45;108809;1252;101454;-73
2023/04/09 01:18:01;;;;;;;121.70;70.90;;;;;;;3.79;78.89;97749.16;108788;1253;100031;-71
2023/04/09 01:20:34;;;;;;;;;;;;;;;3.79;78.78;97752.00;108805;1256;95586;-73
2023/04/09 01:23:11;;;;;;;113.00;66.00;;;;;;;3.77;78.99;97751.71;108700;1253;95731;-72
2023/04/09 01:26:00;;;;;;;111.10;65.10;;;;;;;3.75;78.93;97750.23;108824;1252;103563;-73
2023/04/09 01:28:45;;;;;;;117.00;69.00;;;;;;;3.76;78.98;97753.71;108783;1252;101395;-72
2023/04/09 01:31:17;;;;;;;112.50;69.30;;;;;;;3.77;79.10;97754.55;108808;1251;99928;-72
2023/04/09 01:33:46;;;;;;;118.60;69.40;;;;;;;3.74;79.12;97755.06;108783;1254;95551;-73
2023/04/09 01:36:15;;;;;;;113.40;65.00;;;;;;;3.72;79.14;97759.52;108840;1255;96075;-72
2023/04/09 01:38:45;;;;;;;113.60;67.20;;;;;;;3.73;79.17;97762.13;108641;1254;103307;-71
2023/04/09 01:41:18;;;;;;;118.40;68.60;;;;;;;3.75;79.24;97764.92;108817;1253;109916;-71
2023/04/09 01:43:47;;;;;;;117.20;67.10;;;;;;;3.73;79.23;97761.16;108799;1253;100100;-72
2023/04/09 01:46:16;;;;;;;110.30;65.20;;;;;;;3.72;79.31;97760.63;108851;1254;95498;-72
2023/04/09 01:48:45;;;;;;;116.20;67.40;;;;;;;3.72;79.27;97756.52;108846;1253;96158;-72
2023/04/09 01:51:14;;;;;;;122.90;69.40;;;;;;;3.74;79.27;97758.55;108724;1254;103699;-71
2023/04/09 01:53:42;;;;;;;117.20;69.90;;;;;;;3.78;79.33;97763.01;108833;1252;101693;-71
2023/04/09 01:56:10;;;;;;;122.10;68.40;;;;;;;3.80;79.32;97765.25;108755;1252;99227;-71
2023/04/09 01:58:39;;;;;;;121.90;70.10;;;;;;;3.79;79.28;97762.98;108749;1253;95571;-72
2023/04/09 02:01:14;;;;;;;117.80;68.60;;;;;;;3.78;79.32;97763.44;108781;1252;96251;-71
2023/04/09 02:04:16;;;;;;;122.20;69.40;;;;;;;3.77;79.39;97763.40;108793;1253;103481;-72
2023/04/09 02:07:05;;;;;;;82.90;49.20;;;;;;;3.73;79.40;97760.42;108274;1257;101361;-72
2023/04/09 02:09:36;;;;;;;122.20;71.10;;;;;;;3.72;79.38;97761.63;108284;1259;100136;-72
2023/04/09 02:12:07;;;;;;;118.10;70.80;;;;;;;3.74;79.44;97764.66;108218;1258;95719;-71
2023/04/09 02:14:36;;;;;;;117.80;69.50;;;;;;;3.76;79.50;97765.64;108274;1259;96126;-72
2023/04/09 02:17:04;;;;;;;125.30;72.70;;;;;;;3.77;79.53;97764.27;108278;1259;103322;-71
2023/04/09 02:19:45;;;;;;;122.00;71.00;;;;;;;3.76;79.47;97764.73;108235;1259;101086;-72
2023/04/09 02:22:15;;;;;;;120.80;70.60;;;;;;;3.76;79.53;97764.45;108135;1259;99578;-71
2023/04/09 02:24:43;;;;;;;122.30;70.90;;;;;;;3.76;79.58;97760.65;108280;1260;95728;-71
2023/04/09 02:27:11;;;;;;;118.20;65.20;;;;;;;3.76;79.54;97762.45;108212;1259;96194;-72
2023/04/09 02:29:42;;;;;;;112.40;66.20;;;;;;;3.75;79.55;97764.69;108247;1260;103542;-72
2023/04/09 02:32:10;;;;;;;116.40;66.60;;;;;;;3.76;79.58;97760.73;108266;1260;101049;-72
2023/04/09 02:34:38;;;;;;;117.50;68.30;;;;;;;3.77;79.60;97757.34;108250;1260;99604;-71
2023/04/09 02:37:06;;;;;;;122.20;69.40;;;;;;;3.78;79.61;97760.30;108151;1261;95679;-71
2023/04/09 02:39:34;;;;;;;120.90;68.50;;;;;;;3.78;79.70;97758.86;108286;1260;96115;-71
2023/04/09 02:42:02;;;;;;;116.30;68.10;;;;;;;3.79;79.68;97755.73;108307;1258;103536;-71
2023/04/09 02:44:30;;;;;;;116.90;67.60;;;;;;;3.80;79.71;97757.95;108681;1252;101549;-73
2023/04/09 02:46:58;;;;;;;101.50;61.70;;;;;;;3.80;79.71;97757.41;108663;1252;99743;-71
2023/04/09 02:49:26;;;;;;;103.40;59.90;;;;;;;3.80;79.65;97751.94;108523;1253;95666;-73
2023/04/09 02:51:54;;;;;;;98.70;58.10;;;;;;;3.79;79.56;97751.67;108777;1253;96062;-72
2023/04/09 02:54:22;;;;;;;101.60;60.90;;;;;;;3.79;79.60;97754.36;108778;1253;103184;-73
2023/04/09 02:56:50;;;;;;;96.20;58.50;;;;;;;3.79;79.60;97753.10;108521;1252;101593;-70
2023/04/09 02:59:18;;;;;;;100.70;59.60;;;;;;;3.79;79.62;97754.64;108619;1253;100279;-71
2023/04/09 03:01:46;;;;;;;101.00;61.10;;;;;;;3.80;79.54;97753.81;108477;1252;95766;-71
2023/04/09 03:04:14;;;;;;;102.60;59.90;;;;;;;3.81;79.62;97756.39;108717;1252;96103;-71
2023/04/09 03:06:42;;;;;;;109.50;62.60;;;;;;;3.82;79.58;97757.02;108834;1253;102195;-72
2023/04/09 03:09:10;;;;;;;109.20;64.10;;;;;;;3.82;79.59;97754.52;108760;1253;101228;-72
2023/04/09 03:11:38;;;;;;;108.50;64.50;;;;;;;3.83;79.62;97754.83;108744;1254;99436;-71
2023/04/09 03:14:06;;;;;;;114.40;63.30;;;;;;;3.83;79.55;97751.40;108757;1252;95512;-72
2023/04/09 03:16:34;;;;;;;113.40;64.50;;;;;;;3.84;79.57;97753.30;108777;1253;96511;-72
2023/04/09 03:19:02;;;;;;;118.40;66.00;;;;;;;3.84;79.53;97751.86;108683;1252;103258;-72
2023/04/09 03:21:31;;;;;;;116.20;64.30;;;;;;;3.82;79.63;97753.09;108773;1252;101524;-72
2023/04/09 03:24:01;;;;;;;111.70;62.60;;;;;;;3.79;79.58;97753.60;108789;1251;100375;-72
2023/04/09 03:26:34;;;;;;;112.00;64.20;;;;;;;3.76;79.63;97750.31;108752;1252;95615;-73
2023/04/09 03:29:04;;;;;;;108.50;61.50;;;;;;;3.76;79.64;97750.01;108692;1252;96059;-72
2023/04/09 03:31:32;;;;;;;106.00;59.60;;;;;;;3.74;79.70;97750.18;108792;1252;103369;-72
2023/04/09 03:34:00;;;;;;;99.50;57.70;;;;;;;3.73;79.64;97746.75;108816;1253;101272;-72
2023/04/09 03:36:29;;;;;;;103.30;58.20;;;;;;;3.74;79.70;97750.26;108718;1254;100208;-73
2023/04/09 03:38:57;;;;;;;108.50;61.50;;;;;;;3.74;79.65;97748.48;108744;1252;95884;-70
2023/04/09 03:41:26;;;;;;;113.00;61.30;;;;;;;3.74;79.69;97753.45;108773;1252;96026;-70
2023/04/09 03:43:54;;;;;;;105.00;58.00;;;;;;;3.73;79.77;97751.92;108742;1253;103475;-72
2023/04/09 03:46:23;;;;;;;106.10;61.10;;;;;;;3.72;79.74;97752.02;108788;1252;101536;-72
2023/04/09 03:48:51;;;;;;;94.80;57.10;;;;;;;3.70;79.75;97757.38;108468;1252;99365;-70
2023/04/09 03:51:19;;;;;;;103.50;58.80;;;;;;;3.69;79.81;97760.34;108624;1253;95669;-72
2023/04/09 03:53:47;;;;;;;108.50;60.90;;;;;;;3.70;79.76;97765.21;108623;1252;96141;-72
2023/04/09 03:56:16;;;;;;;112.90;65.80;;;;;;;3.71;79.82;97768.30;108783;1253;104474;-71
2023/04/09 03:58:44;;;;;;;117.00;68.40;;;;;;;3.73;79.86;97767.21;108491;1252;101087;-72
2023/04/09 04:01:12;;;;;;;115.40;66.00;;;;;;;3.76;79.87;97770.70;108758;1252;99812;-72
2023/04/09 04:03:40;;;;;;;114.40;67.10;;;;;;;3.76;79.97;97771.51;108689;1252;95559;-71
2023/04/09 04:06:08;;;;;;;112.50;65.60;;;;;;;3.76;79.88;97773.09;108817;1253;96062;-72
2023/04/09 04:08:36;;;;;;;108.30;62.50;;;;;;;3.78;79.89;97774.71;108759;1251;103617;-72
2023/04/09 04:11:05;;;;;;;107.10;65.10;;;;;;;3.78;79.90;97782.54;108765;1252;101405;-72
2023/04/09 04:13:33;;;;;;;112.70;64.00;;;;;;;3.78;79.91;97782.56;108786;1252;100043;-72
2023/04/09 04:16:01;;;;;;;106.20;63.20;;;;;;;3.78;79.85;97781.36;108638;1253;95646;-73
2023/04/09 04:18:29;;;;;;;106.60;61.90;;;;;;;3.77;79.89;97780.48;108736;1253;96108;-72
2023/04/09 04:20:57;;;;;;;106.50;61.20;;;;;;;3.76;79.94;97779.70;108735;1253;103720;-72
2023/04/09 04:23:25;;;;;;;107.90;61.20;;;;;;;3.76;79.86;97780.45;108753;1252;101292;-71
2023/04/09 04:25:53;;;;;;;97.70;57.30;;;;;;;3.77;79.88;97786.56;108720;1253;99868;-71
2023/04/09 04:28:21;;;;;;;86.70;52.80;;;;;;;3.78;80.00;97787.34;108727;1253;95579;-72
2023/04/09 04:30:49;;;;;;;77.40;48.60;;;;;;;3.80;79.95;97788.92;108795;1252;95930;-72
2023/04/09 04:33:17;;;;;;;85.00;51.10;;;;;;;3.82;79.95;97789.90;108782;1251;103685;-71
2023/04/09 04:35:46;;;;;;;90.90;51.60;;;;;;;3.85;80.02;97793.03;108808;1252;101555;-73
2023/04/09 04:38:14;;;;;;;90.90;54.40;;;;;;;3.87;79.93;97795.86;108608;1253;99632;-72
2023/04/09 04:40:42;;;;;;;96.00;58.00;;;;;;;3.89;79.89;97796.90;108709;1252;95699;-72
2023/04/09 04:43:10;;;;;;;103.50;60.30;;;;;;;3.91;79.83;97795.08;108754;1252;96024;-72
2023/04/09 04:45:38;;;;;;;91.40;55.60;;;;;;;3.90;79.89;97791.04;108608;1252;103347;-72
2023/04/09 04:48:06;;;;;;;89.60;54.80;;;;;;;3.89;79.88;97796.67;108572;1257;101526;-71
2023/04/09 04:50:34;;;;;;;82.80;51.40;;;;;;;3.88;79.85;97796.93;108742;1252;99004;-72
2023/04/09 04:53:02;;;;;;;87.60;52.80;;;;;;;3.87;79.96;97798.63;108771;1252;95569;-71
2023/04/09 04:55:30;;;;;;;88.90;52.40;;;;;;;3.86;79.89;97798.74;108767;1254;96078;-72
2023/04/09 04:57:58;;;;;;;86.70;53.60;;;;;;;3.87;79.82;97798.84;108761;1253;103251;-72
2023/04/09 05:00:26;;;;;;;80.70;49.60;;;;;;;3.88;79.86;97794.12;108794;1252;101211;-71
2023/04/09 05:02:54;;;;;;;82.80;49.80;;;;;;;3.89;79.81;97798.83;108793;1252;99792;-72
2023/04/09 05:05:23;;;;;;;79.90;50.50;;;;;;;3.90;79.69;97796.98;108759;1252;95485;-71
2023/04/09 05:07:51;;;;;;;81.40;51.10;;;;;;;3.90;79.77;97799.41;108767;1252;96029;-72
2023/04/09 05:10:19;;;;;;;85.30;51.30;;;;;;;3.91;79.81;97800.76;108856;1252;103410;-72
2023/04/09 05:12:47;;;;;;;84.40;50.30;;;;;;;3.93;79.88;97799.30;108783;1252;101340;-71
2023/04/09 05:15:15;;;;;;;83.20;50.50;;;;;;;3.93;79.82;97800.34;108709;1253;99855;-72
2023/04/09 05:17:44;;;;;;;80.20;51.10;;;;;;;3.94;79.81;97800.11;108753;1252;95574;-71
2023/04/09 05:20:12;;;;;;;77.40;47.30;;;;;;;3.96;79.78;97802.36;108584;1253;96024;-70
2023/04/09 05:22:40;;;;;;;78.00;48.00;;;;;;;3.98;79.81;97799.98;108769;1252;103645;-72
2023/04/09 05:25:09;;;;;;;77.40;46.60;;;;;;;3.99;79.73;97802.23;108646;1254;101334;-72
2023/04/09 05:27:37;;;;;;;74.40;46.30;;;;;;;4.00;79.72;97804.02;108792;1251;99914;-72
2023/04/09 05:30:06;;;;;;;79.80;49.40;;;;;;;4.02;79.86;97803.87;108730;1252;95576;-71
2023/04/09 05:32:34;;;;;;;77.30;48.40;;;;;;;4.05;79.73;97805.93;108614;1253;95775;-71
2023/04/09 05:35:03;;;;;;;105.70;59.70;;;;;;;4.07;79.81;97809.98;108754;1252;103254;-72
2023/04/09 05:37:31;;;;;;;106.70;61.60;;;;;;;4.10;79.91;97809.65;108485;1253;101075;-73
2023/04/09 05:39:59;;;;;;;111.30;64.50;;;;;;;4.13;79.84;97810.76;108679;1253;100406;-71
2023/04/09 05:42:27;;;;;;;114.10;65.20;;;;;;;4.15;79.86;97812.48;108593;1252;95606;-71
2023/04/09 05:44:55;;;;;;;103.60;61.70;;;;;;;4.17;79.86;97816.33;108684;1252;96528;-71
2023/04/09 05:47:23;;;;;;;105.70;61.40;;;;;;;4.20;79.77;97816.22;108654;1253;102661;-72
2023/04/09 05:49:51;;;;;;;94.70;58.60;;;;;;;4.23;79.80;97817.81;108784;1252;101312;-72
2023/04/09 05:52:20;;;;;;;100.10;57.60;;;;;;;4.27;79.74;97818.02;108771;1252;100119;-71
2023/04/09 05:54:48;;;;;;;96.50;55.70;;;;;;;4.30;79.71;97819.12;108740;1252;95598;-71
2023/04/09 05:57:16;;;;;;;98.10;56.60;;;;;;;4.31;79.74;97823.96;108838;1252;96028;-71
2023/04/09 05:59:44;;;;;;;91.50;52.70;;;;;;;4.32;79.81;97824.75;108801;1252;103502;-72
2023/04/09 06:02:12;;;;;;;86.90;51.90;;;;;;;4.36;79.90;97828.38;108792;1252;101173;-71
2023/04/09 06:04:40;;;;;;;90.40;51.10;;;;;;;4.40;79.92;97831.70;108806;1252;99866;-72
2023/04/09 06:07:08;;;;;;;90.80;53.40;;;;;;;4.43;79.82;97831.06;108739;1252;95622;-72
2023/04/09 06:09:36;;;;;;;82.10;48.80;;;;;;;4.46;79.78;97832.71;108814;1252;96000;-71
2023/04/09 06:12:05;;;;;;;79.20;49.30;;;;;;;4.48;79.70;97836.54;108783;1252;103478;-73
2023/04/09 06:14:33;;;;;;;76.30;46.20;;;;;;;4.51;79.54;97836.98;108493;1252;101566;-71
2023/04/09 06:17:01;;;;;;;81.10;47.60;;;;;;;4.49;79.31;97837.85;108777;1251;100357;-71
2023/04/09 06:19:29;;;;;;;73.10;46.50;;;;;;;4.52;79.37;97838.13;108756;1252;95844;-71
2023/04/09 06:21:57;;;;;;;78.60;46.60;;;;;;;4.56;79.44;97842.80;108623;1252;96430;-72
2023/04/09 06:24:26;;;;;;;77.60;44.80;;;;;;;4.59;79.42;97842.82;108784;1252;103745;-71
2023/04/09 06:26:54;;;;;;;73.30;44.80;;;;;;;4.63;79.47;97844.94;108790;1252;101319;-70
2023/04/09 06:29:22;;;;;;;77.30;45.40;;;;;;;4.66;79.32;97843.22;108461;1252;99573;-73
2023/04/09 06:31:50;;;;;;;75.80;45.90;;;;;;;4.69;79.37;97847.35;108739;1251;95543;-72
2023/04/09 06:34:18;;;;;;;81.30;47.30;;;;;;;4.70;79.30;97843.33;108614;1253;95983;-72
2023/04/09 06:36:46;;;;;;;75.40;45.50;;;;;;;4.70;79.24;97845.02;108730;1252;103491;-72
2023/04/09 06:39:14;;;;;;;79.50;46.30;;;;;;;4.73;79.19;97845.89;108777;1252;101471;-72
2023/04/09 06:41:42;;;;;;;78.50;47.20;;;;;;;4.74;79.03;97845.05;108777;1252;97865;-71
2023/04/09 06:44:10;;;;;;;77.10;46.00;;;;;;;4.76;78.97;97846.67;108729;1253;95605;-73
2023/04/09 06:46:38;;;;;;;76.00;45.00;;;;;;;4.79;79.02;97845.55;108718;1252;96077;-72
2023/04/09 06:49:06;;;;;;;78.00;47.50;;;;;;;4.84;78.96;97848.05;108813;1252;103441;-72
2023/04/09 06:51:35;;;;;;;78.00;45.80;;;;;;;4.90;79.02;97852.22;108786;1252;101487;-72
2023/04/09 06:54:03;;;;;;;70.20;43.20;;;;;;;4.96;78.99;97850.15;108750;1252;100114;-71
2023/04/09 06:56:31;;;;;;;69.20;42.30;;;;;;;5.00;78.79;97848.95;108476;1252;95623;-72
2023/04/09 06:58:59;;;;;;;66.30;40.50;;;;;;;4.99;78.67;97849.79;108655;1252;97424;-71
2023/04/09 07:01:27;;;;;;;68.20;42.30;;;;;;;5.00;78.62;97851.86;108774;1251;103540;-73
2023/04/09 07:03:56;;;;;;;73.60;43.80;;;;;;;5.05;78.76;97851.48;108787;1252;101265;-73
2023/04/09 07:06:24;;;;;;;72.70;43.00;;;;;;;5.11;78.84;97854.74;108758;1252;100139;-72
2023/04/09 07:08:52;;;;;;;74.50;44.40;;;;;;;5.18;78.82;97860.77;108783;1252;95514;-72
2023/04/09 07:11:20;;;;;;;72.10;43.40;;;;;;;5.25;78.78;97861.08;108637;1252;96033;-72
2023/04/09 07:13:48;;;;;;;66.70;40.50;;;;;;;5.30;78.51;97859.11;108577;1252;103043;-72
2023/04/09 07:16:16;;;;;;;73.80;41.80;;;;;;;5.34;78.36;97862.95;108743;1253;101700;-72
2023/04/09 07:18:45;;;;;;;67.40;41.70;;;;;;;5.40;78.46;97863.70;108644;1253;100107;-72
2023/04/09 07:21:13;;;;;;;71.50;42.40;;;;;;;5.47;78.32;97866.53;108444;1253;96434;-73
2023/04/09 07:23:42;;;;;;;68.60;40.40;;;;;;;5.54;78.33;97862.67;108762;1252;96025;-71
2023/04/09 07:26:10;;;;;;;67.70;39.50;;;;;;;5.62;78.39;97866.66;108773;1251;103314;-71
